createdAt,value
2018-12-05T00:01:16.135Z,99.59
2018-12-05T00:03:42.249Z,99.46
2018-12-05T00:06:08.540Z,99.66
2018-12-05T00:08:34.683Z,99.55
2018-12-05T00:11:00.810Z,99.47
2018-12-05T00:13:26.931Z,99.20
2018-12-05T00:15:53.073Z,99.31
2018-12-05T00:18:19.250Z,99.42
2018-12-05T00:20:45.376Z,99.36
2018-12-05T00:23:11.553Z,99.40
2018-12-05T00:25:37.666Z,99.24
2018-12-05T00:28:03.815Z,99.23
2018-12-05T00:30:29.937Z,99.13
2018-12-05T00:32:56.069Z,98.98
2018-12-05T00:35:22.187Z,99.09
2018-12-05T00:37:48.328Z,99.01
2018-12-05T00:40:14.475Z,99.08
2018-12-05T00:42:40.612Z,99.20
2018-12-05T00:45:06.884Z,99.11
2018-12-05T00:47:33.146Z,99.09
2018-12-05T00:49:59.283Z,99.10
2018-12-05T00:52:25.414Z,99.21
2018-12-05T00:54:51.579Z,99.04
2018-12-05T00:57:17.715Z,98.90
2018-12-05T00:59:43.867Z,99.29
2018-12-05T01:02:10.050Z,99.25
2018-12-05T01:04:36.185Z,98.87
2018-12-05T01:07:02.542Z,99.08
2018-12-05T01:09:28.701Z,98.98
2018-12-05T01:11:54.838Z,98.91
2018-12-05T01:14:20.993Z,98.57
2018-12-05T01:16:47.111Z,99.21
2018-12-05T01:19:13.240Z,98.64
2018-12-05T01:21:39.374Z,98.48
2018-12-05T01:24:05.507Z,98.23
2018-12-05T01:26:31.629Z,98.62
2018-12-05T01:28:57.765Z,98.28
2018-12-05T01:31:23.903Z,98.40
2018-12-05T01:33:50.052Z,98.38
2018-12-05T01:36:16.186Z,98.03
2018-12-05T01:38:42.323Z,98.09
2018-12-05T01:41:08.442Z,98.25
2018-12-05T01:43:40.613Z,98.15
2018-12-05T01:46:06.728Z,97.89
2018-12-05T01:48:32.853Z,98.23
2018-12-05T01:50:58.986Z,98.05
2018-12-05T01:53:25.182Z,97.96
2018-12-05T01:55:51.305Z,97.98
2018-12-05T01:58:17.455Z,98.04
2018-12-05T02:00:43.596Z,97.98
2018-12-05T02:03:09.714Z,97.87
2018-12-05T02:05:35.855Z,97.55
2018-12-05T02:08:01.969Z,97.89
2018-12-05T02:10:28.131Z,97.97
2018-12-05T02:12:54.264Z,97.97
2018-12-05T02:15:20.380Z,98.20
2018-12-05T02:17:46.517Z,98.52
2018-12-05T02:20:12.662Z,98.25
2018-12-05T02:22:38.788Z,97.94
2018-12-05T02:25:05.171Z,98.03
2018-12-05T02:27:31.302Z,98.17
2018-12-05T02:29:57.577Z,97.69
2018-12-05T02:32:23.699Z,97.87
2018-12-05T02:34:49.841Z,97.30
2018-12-05T02:37:15.963Z,97.95
2018-12-05T02:39:42.108Z,97.64
2018-12-05T02:42:08.250Z,97.43
2018-12-05T02:44:34.375Z,97.88
2018-12-05T02:47:00.488Z,97.81
2018-12-05T02:49:26.811Z,98.11
2018-12-05T02:51:52.929Z,97.93
2018-12-05T02:54:19.071Z,97.70
2018-12-05T02:56:45.244Z,97.66
2018-12-05T02:59:11.351Z,97.96
2018-12-05T03:01:37.496Z,97.97
2018-12-05T03:04:03.648Z,97.95
2018-12-05T03:06:29.779Z,98.12
2018-12-05T03:08:55.893Z,97.90
2018-12-05T03:11:22.016Z,97.98
2018-12-05T03:13:48.137Z,97.94
2018-12-05T03:16:14.276Z,98.04
2018-12-05T03:18:40.403Z,98.10
2018-12-05T03:21:06.559Z,97.78
2018-12-05T03:23:32.664Z,97.80
2018-12-05T03:25:58.932Z,97.22
2018-12-05T03:28:25.113Z,97.26
2018-12-05T03:30:51.319Z,97.13
2018-12-05T03:33:17.436Z,97.37
2018-12-05T03:35:43.583Z,97.57
2018-12-05T03:38:09.716Z,97.88
2018-12-05T03:40:35.842Z,97.63
2018-12-05T03:43:01.992Z,97.62
2018-12-05T03:45:31.611Z,97.76
2018-12-05T03:47:58.107Z,97.92
2018-12-05T03:50:24.358Z,97.98
2018-12-05T03:52:50.488Z,97.76
2018-12-05T03:55:16.619Z,97.91
2018-12-05T03:57:42.746Z,97.89
2018-12-05T04:00:08.931Z,97.75
2018-12-05T04:02:35.175Z,97.84
2018-12-05T04:05:01.358Z,97.49
2018-12-05T04:07:27.616Z,97.91
2018-12-05T04:09:53.888Z,97.68
2018-12-05T04:12:20.038Z,97.98
2018-12-05T04:14:46.151Z,97.39
2018-12-05T04:17:12.322Z,97.68
2018-12-05T04:19:38.583Z,97.07
2018-12-05T04:22:04.851Z,97.09
2018-12-05T04:24:30.976Z,97.12
2018-12-05T04:26:57.121Z,96.90
2018-12-05T04:29:23.243Z,97.21
2018-12-05T04:31:49.362Z,97.02
2018-12-05T04:34:15.483Z,97.33
2018-12-05T04:36:41.623Z,96.72
2018-12-05T04:39:07.879Z,96.76
2018-12-05T04:41:34.023Z,97.32
2018-12-05T04:44:01.989Z,96.87
2018-12-05T04:46:28.305Z,97.22
2018-12-05T04:48:54.421Z,97.00
2018-12-05T04:51:20.590Z,97.03
2018-12-05T04:53:46.723Z,96.74
2018-12-05T04:56:12.854Z,96.98
2018-12-05T04:58:39.002Z,97.07
2018-12-05T05:01:05.139Z,97.12
2018-12-05T05:03:31.274Z,96.65
2018-12-05T05:05:57.375Z,96.70
2018-12-05T05:08:23.515Z,96.92
2018-12-05T05:10:49.646Z,96.54
2018-12-05T05:13:15.779Z,96.34
2018-12-05T05:15:41.905Z,96.59
2018-12-05T05:18:08.059Z,96.60
2018-12-05T05:20:34.190Z,96.99
2018-12-05T05:23:00.319Z,96.73
2018-12-05T05:25:26.479Z,96.57
2018-12-05T05:27:52.627Z,96.90
2018-12-05T05:30:18.747Z,96.90
2018-12-05T05:32:46.931Z,96.88
2018-12-05T05:35:13.052Z,96.77
2018-12-05T05:37:39.232Z,96.82
2018-12-05T05:40:05.475Z,96.24
2018-12-05T05:42:31.587Z,96.87
2018-12-05T05:44:57.720Z,96.72
2018-12-05T05:47:23.852Z,96.92
2018-12-05T05:49:49.987Z,96.94
2018-12-05T05:52:16.103Z,97.20
2018-12-05T05:54:42.214Z,96.96
2018-12-05T05:57:08.337Z,97.19
2018-12-05T05:59:34.475Z,97.24
2018-12-05T06:02:00.621Z,97.09
2018-12-05T06:04:26.731Z,97.16
2018-12-05T06:06:52.847Z,97.47
2018-12-05T06:09:18.978Z,97.08
2018-12-05T06:11:45.095Z,97.38
2018-12-05T06:14:11.237Z,97.08
2018-12-05T06:16:37.376Z,97.23
2018-12-05T06:19:05.289Z,97.35
2018-12-05T06:21:31.711Z,97.35
2018-12-05T06:23:57.868Z,97.54
2018-12-05T06:26:23.982Z,97.79
2018-12-05T06:28:50.106Z,97.23
2018-12-05T06:31:16.255Z,97.27
2018-12-05T06:33:42.380Z,97.34
2018-12-05T06:36:09.411Z,97.73
2018-12-05T06:38:35.544Z,97.56
2018-12-05T06:41:01.690Z,97.66
2018-12-05T06:43:27.827Z,97.52
2018-12-05T06:45:53.939Z,97.47
2018-12-05T06:48:20.099Z,97.53
2018-12-05T06:50:46.231Z,97.74
2018-12-05T06:53:12.350Z,97.61
2018-12-05T06:55:39.205Z,97.80
2018-12-05T06:58:05.632Z,98.08
2018-12-05T07:00:31.796Z,97.80
2018-12-05T07:02:57.927Z,98.09
2018-12-05T07:05:24.533Z,98.51
2018-12-05T07:07:50.682Z,98.47
2018-12-05T07:10:16.830Z,98.28
2018-12-05T07:12:42.965Z,98.86
2018-12-05T07:15:09.102Z,98.94
2018-12-05T07:17:35.244Z,98.87
2018-12-05T07:20:01.733Z,98.93
2018-12-05T07:22:27.873Z,98.95
2018-12-05T07:24:53.999Z,98.84
2018-12-05T07:27:20.141Z,98.63
2018-12-05T07:29:46.284Z,99.03
2018-12-05T07:32:12.435Z,98.87
2018-12-05T07:34:38.559Z,98.50
2018-12-05T07:37:04.695Z,98.55
2018-12-05T07:39:30.824Z,98.73
2018-12-05T07:41:56.967Z,98.62
2018-12-05T07:44:23.115Z,98.38
2018-12-05T07:46:49.252Z,98.51
2018-12-05T07:49:15.400Z,98.29
2018-12-05T07:51:41.573Z,98.37
2018-12-05T07:54:07.707Z,98.32
2018-12-05T07:56:33.838Z,98.31
2018-12-05T07:58:59.961Z,98.22
2018-12-05T08:01:26.102Z,98.06
2018-12-05T08:03:52.242Z,98.21
2018-12-05T08:06:18.404Z,98.10
2018-12-05T08:08:44.548Z,98.02
2018-12-05T08:11:10.710Z,97.42
2018-12-05T08:13:36.866Z,97.20
2018-12-05T08:16:03.137Z,97.34
2018-12-05T08:18:29.283Z,97.51
2018-12-05T08:20:55.416Z,97.64
2018-12-05T08:23:21.569Z,97.37
2018-12-05T08:25:47.740Z,97.45
2018-12-05T08:28:13.879Z,97.44
2018-12-05T08:30:40.031Z,97.43
2018-12-05T08:33:06.172Z,97.21
2018-12-05T08:35:32.371Z,97.59
2018-12-05T08:37:58.567Z,97.11
2018-12-05T08:40:24.711Z,97.50
2018-12-05T08:42:50.863Z,97.20
2018-12-05T08:45:17.132Z,97.17
2018-12-05T08:47:43.289Z,96.99
2018-12-05T08:50:09.459Z,96.27
2018-12-05T08:52:35.609Z,96.04
2018-12-05T08:55:01.764Z,96.14
2018-12-05T08:57:27.929Z,96.36
2018-12-05T08:59:54.075Z,96.05
2018-12-05T09:02:20.231Z,96.24
2018-12-05T09:04:46.371Z,96.30
2018-12-05T09:07:12.527Z,96.28
2018-12-05T09:09:38.687Z,96.30
2018-12-05T09:12:04.839Z,95.63
2018-12-05T09:14:30.978Z,95.51
2018-12-05T09:16:57.107Z,95.77
2018-12-05T09:19:23.255Z,95.77
2018-12-05T09:21:49.387Z,95.00
2018-12-05T09:24:15.550Z,95.59
2018-12-05T09:26:41.674Z,95.62
2018-12-05T09:29:07.816Z,95.33
2018-12-05T09:31:33.976Z,95.74
2018-12-05T09:34:00.137Z,94.71
2018-12-05T09:36:26.280Z,95.29
2018-12-05T09:38:52.419Z,95.56
2018-12-05T09:41:18.558Z,95.66
2018-12-05T09:43:44.723Z,95.88
2018-12-05T09:46:10.878Z,95.87
2018-12-05T09:48:37.039Z,95.29
2018-12-05T09:51:03.181Z,95.31
2018-12-05T09:53:29.333Z,94.86
2018-12-05T09:55:55.486Z,95.67
2018-12-05T09:58:21.652Z,94.59
2018-12-05T10:00:47.789Z,94.75
2018-12-05T10:03:13.908Z,95.48
2018-12-05T10:05:40.060Z,94.64
2018-12-05T10:08:06.203Z,93.99
2018-12-05T10:10:32.353Z,94.59
2018-12-05T10:12:58.508Z,95.22
2018-12-05T10:15:24.651Z,94.97
2018-12-05T10:17:50.794Z,94.63
2018-12-05T10:20:16.956Z,94.17
2018-12-05T10:22:43.069Z,94.46
2018-12-05T10:25:09.225Z,94.34
2018-12-05T10:27:35.381Z,94.27
2018-12-05T10:30:01.779Z,93.67
2018-12-05T10:32:27.959Z,93.50
2018-12-05T10:34:54.112Z,93.96
2018-12-05T10:37:20.235Z,94.20
2018-12-05T10:39:46.378Z,93.99
2018-12-05T10:42:12.787Z,94.41
2018-12-05T10:44:38.927Z,94.06
2018-12-05T10:47:05.076Z,94.14
2018-12-05T10:49:31.275Z,94.70
2018-12-05T10:51:57.455Z,94.65
2018-12-05T10:54:23.652Z,94.23
2018-12-05T10:56:49.816Z,94.35
2018-12-05T10:59:15.972Z,93.51
2018-12-05T11:01:48.152Z,93.96
2018-12-05T11:04:17.767Z,93.87
2018-12-05T11:06:49.907Z,92.15
2018-12-05T11:12:25.754Z,94.36
2018-12-05T11:14:57.880Z,93.58
2018-12-05T11:17:30.353Z,94.17
2018-12-05T11:19:58.563Z,94.08
2018-12-05T11:22:30.751Z,93.76
2018-12-05T11:25:02.707Z,93.88
2018-12-05T11:27:28.878Z,92.83
2018-12-05T11:29:55.052Z,93.24
2018-12-05T11:32:21.196Z,94.10
2018-12-05T11:34:47.328Z,93.69
2018-12-05T11:37:13.489Z,93.97
2018-12-05T11:39:39.987Z,93.64
2018-12-05T11:42:06.174Z,93.33
2018-12-05T11:44:32.309Z,93.03
2018-12-05T11:46:58.452Z,93.42
2018-12-05T11:49:24.592Z,93.88
2018-12-05T11:51:50.754Z,93.10
2018-12-05T11:54:16.939Z,93.67
2018-12-05T11:56:43.078Z,94.37
2018-12-05T11:59:09.226Z,93.76
2018-12-05T12:01:35.388Z,94.77
2018-12-05T12:04:01.539Z,94.85
2018-12-05T12:06:27.707Z,94.46
2018-12-05T12:08:53.871Z,94.64
2018-12-05T12:11:20.776Z,94.94
2018-12-05T12:13:46.927Z,95.03
2018-12-05T12:16:13.526Z,94.21
2018-12-05T12:18:39.691Z,94.74
2018-12-05T12:21:05.804Z,94.14
2018-12-05T12:23:31.931Z,94.72
2018-12-05T12:25:58.084Z,95.19
2018-12-05T12:28:24.218Z,95.09
2018-12-05T12:30:50.332Z,95.22
2018-12-05T12:33:16.497Z,95.45
2018-12-05T12:35:42.640Z,95.23
2018-12-05T12:38:08.775Z,95.01
2018-12-05T12:40:34.976Z,94.97
2018-12-05T12:43:01.136Z,95.91
2018-12-05T12:45:27.341Z,96.20
2018-12-05T12:47:53.540Z,95.75
2018-12-05T12:50:19.723Z,95.72
2018-12-05T12:52:45.857Z,95.82
2018-12-05T12:55:12.015Z,95.89
2018-12-05T12:57:38.161Z,95.37
2018-12-05T13:00:06.486Z,95.74
2018-12-05T13:02:32.625Z,95.13
2018-12-05T13:04:58.768Z,95.76
2018-12-05T13:07:24.931Z,96.18
2018-12-05T13:09:51.103Z,95.72
2018-12-05T13:12:19.266Z,95.65
2018-12-05T13:14:45.405Z,96.02
2018-12-05T13:17:11.522Z,95.91
2018-12-05T13:19:37.649Z,96.08
2018-12-05T13:22:03.784Z,95.67
2018-12-05T13:24:29.936Z,95.79
2018-12-05T13:26:56.071Z,95.84
2018-12-05T13:29:22.205Z,96.05
2018-12-05T13:31:48.316Z,96.22
2018-12-05T13:34:14.783Z,96.46
2018-12-05T13:36:40.952Z,96.07
2018-12-05T13:39:07.212Z,96.15
2018-12-05T13:41:33.375Z,96.28
2018-12-05T13:43:59.508Z,96.56
2018-12-05T13:46:29.858Z,96.17
2018-12-05T13:48:53.809Z,95.69
2018-12-05T13:51:19.947Z,95.55
2018-12-05T13:53:46.108Z,95.75
2018-12-05T13:56:12.298Z,95.71
2018-12-05T13:58:38.444Z,95.52
2018-12-05T14:01:04.575Z,95.44
2018-12-05T14:03:30.723Z,95.44
2018-12-05T14:05:56.861Z,95.84
2018-12-05T14:08:23.112Z,96.34
2018-12-05T14:10:49.247Z,95.62
2018-12-05T14:13:15.396Z,95.14
2018-12-05T14:15:41.541Z,95.66
2018-12-05T14:18:07.679Z,95.63
2018-12-05T14:20:33.847Z,95.40
2018-12-05T14:22:59.991Z,94.80
2018-12-05T14:25:26.148Z,95.39
2018-12-05T14:27:52.301Z,94.84
2018-12-05T14:30:18.436Z,94.27
2018-12-05T14:32:44.601Z,94.94
2018-12-05T14:35:10.746Z,94.56
2018-12-05T14:37:36.916Z,94.97
2018-12-05T14:40:04.397Z,94.51
2018-12-05T14:42:30.556Z,94.99
2018-12-05T14:44:56.697Z,94.64
2018-12-05T14:47:22.856Z,94.62
2018-12-05T14:49:49.003Z,94.92
2018-12-05T14:52:15.140Z,94.38
2018-12-05T14:54:41.267Z,94.52
2018-12-05T14:57:07.464Z,94.59
2018-12-05T14:59:33.625Z,94.63
2018-12-05T15:01:59.797Z,94.64
2018-12-05T15:04:25.931Z,94.78
2018-12-05T15:06:52.099Z,95.21
2018-12-05T15:09:18.268Z,95.05
2018-12-05T15:11:44.490Z,94.77
2018-12-05T15:14:10.646Z,94.97
2018-12-05T15:16:36.816Z,94.55
2018-12-05T15:19:03.200Z,94.39
2018-12-05T15:21:29.384Z,94.69
2018-12-05T15:23:55.563Z,95.06
2018-12-05T15:26:21.716Z,95.14
2018-12-05T15:28:47.880Z,95.21
2018-12-05T15:31:14.027Z,95.58
2018-12-05T15:33:40.317Z,95.88
2018-12-05T15:36:06.498Z,95.68
2018-12-05T15:38:32.672Z,95.99
2018-12-05T15:40:58.831Z,95.50
2018-12-05T15:43:25.194Z,95.25
2018-12-05T15:45:51.366Z,95.54
2018-12-05T15:48:17.544Z,95.10
2018-12-05T15:50:43.707Z,95.41
2018-12-05T15:53:09.909Z,95.51
2018-12-05T15:55:36.095Z,95.85
2018-12-05T15:58:02.258Z,95.76
2018-12-05T16:00:28.420Z,95.44
2018-12-05T16:02:54.620Z,95.05
2018-12-05T16:05:21.028Z,94.95
2018-12-05T16:07:47.539Z,94.91
2018-12-05T16:10:13.669Z,95.04
2018-12-05T16:12:39.848Z,95.00
2018-12-05T16:15:06.386Z,95.45
2018-12-05T16:17:32.567Z,95.22
2018-12-05T16:19:58.777Z,95.71
2018-12-05T16:22:24.907Z,95.95
2018-12-05T16:24:51.148Z,95.47
2018-12-05T16:27:17.324Z,95.03
2018-12-05T16:29:43.477Z,95.29
2018-12-05T16:32:09.670Z,95.57
2018-12-05T16:34:35.819Z,95.26
2018-12-05T16:37:01.948Z,95.66
2018-12-05T16:39:28.129Z,95.36
2018-12-05T16:41:54.260Z,95.40
2018-12-05T16:44:21.326Z,95.81
2018-12-05T16:46:47.464Z,95.48
2018-12-05T16:49:13.629Z,95.95
2018-12-05T16:51:39.779Z,95.89
2018-12-05T16:54:06.430Z,95.54
2018-12-05T16:56:32.605Z,95.96
2018-12-05T16:58:58.796Z,96.16
2018-12-05T17:01:25.009Z,95.82
2018-12-05T17:03:51.167Z,95.85
2018-12-05T17:06:17.361Z,95.23
2018-12-05T17:08:43.507Z,95.17
2018-12-05T17:11:09.668Z,95.24
2018-12-05T17:13:37.872Z,95.77
2018-12-05T17:16:04.037Z,95.84
2018-12-05T17:18:30.285Z,95.92
2018-12-05T17:20:56.437Z,95.52
2018-12-05T17:23:22.591Z,95.63
2018-12-05T17:25:48.751Z,95.89
2018-12-05T17:28:14.876Z,95.60
2018-12-05T17:30:41.033Z,95.21
2018-12-05T17:33:07.235Z,95.33
2018-12-05T17:35:33.393Z,94.97
2018-12-05T17:37:59.521Z,95.12
2018-12-05T17:40:25.723Z,95.20
2018-12-05T17:42:51.898Z,95.30
2018-12-05T17:45:18.112Z,95.07
2018-12-05T17:47:44.281Z,95.11
2018-12-05T17:50:10.494Z,95.29
2018-12-05T17:52:36.648Z,95.43
2018-12-05T17:55:03.124Z,95.38
2018-12-05T17:57:29.306Z,95.71
2018-12-05T17:59:55.466Z,95.50
2018-12-05T18:02:21.636Z,95.88
2018-12-05T18:04:47.784Z,95.94
2018-12-05T18:07:13.989Z,95.36
2018-12-05T18:09:40.134Z,95.44
2018-12-05T18:12:06.370Z,95.44
2018-12-05T18:14:32.537Z,95.92
2018-12-05T18:16:58.698Z,95.04
2018-12-05T18:19:24.871Z,95.61
2018-12-05T18:21:51.003Z,95.70
2018-12-05T18:24:17.220Z,95.22
2018-12-05T18:26:43.367Z,95.25
2018-12-05T18:29:09.535Z,95.43
2018-12-05T18:31:35.724Z,95.72
2018-12-05T18:34:01.888Z,95.69
2018-12-05T18:36:28.169Z,95.24
2018-12-05T18:38:54.402Z,95.53
2018-12-05T18:41:20.633Z,95.77
2018-12-05T18:43:46.796Z,95.90
2018-12-05T18:46:12.968Z,96.07
2018-12-05T18:48:39.170Z,95.71
2018-12-05T18:51:05.354Z,95.29
2018-12-05T18:53:31.565Z,96.14
2018-12-05T18:55:57.740Z,96.07
2018-12-05T18:58:23.896Z,96.54
2018-12-05T19:00:50.127Z,96.98
2018-12-05T19:03:16.865Z,96.61
2018-12-05T19:05:43.013Z,95.95
2018-12-05T19:08:09.190Z,96.43
2018-12-05T19:10:35.411Z,96.16
2018-12-05T19:13:01.619Z,95.93
2018-12-05T19:15:27.795Z,95.69
2018-12-05T19:17:53.959Z,94.73
2018-12-05T19:20:21.842Z,94.61
2018-12-05T19:22:48.083Z,95.11
2018-12-05T19:25:14.244Z,95.18
2018-12-05T19:27:40.426Z,95.01
2018-12-05T19:30:07.040Z,94.67
2018-12-05T19:32:33.195Z,94.88
2018-12-05T19:34:59.364Z,94.90
2018-12-05T19:37:25.571Z,95.30
2018-12-05T19:39:51.754Z,94.99
2018-12-05T19:42:17.947Z,94.76
2018-12-05T19:44:44.122Z,94.48
2018-12-05T19:47:10.295Z,93.86
2018-12-05T19:49:36.526Z,94.31
2018-12-05T19:52:02.844Z,94.54
2018-12-05T19:54:29.006Z,94.31
2018-12-05T19:56:55.260Z,94.07
2018-12-05T19:59:21.431Z,94.24
2018-12-05T20:01:47.614Z,94.76
2018-12-05T20:04:13.877Z,94.90
2018-12-05T20:06:40.056Z,94.67
2018-12-05T20:09:06.710Z,95.00
2018-12-05T20:11:32.865Z,94.84
2018-12-05T20:13:59.056Z,94.23
2018-12-05T20:16:25.221Z,94.28
2018-12-05T20:18:51.389Z,94.45
2018-12-05T20:21:17.657Z,94.73
2018-12-05T20:23:43.805Z,94.65
2018-12-05T20:26:10.048Z,94.50
2018-12-05T20:28:36.186Z,94.45
2018-12-05T20:31:02.349Z,94.04
2018-12-05T20:33:28.499Z,94.91
2018-12-05T20:35:54.630Z,94.30
2018-12-05T20:38:20.827Z,94.81
2018-12-05T20:40:46.985Z,94.82
2018-12-05T20:43:13.139Z,93.86
2018-12-05T20:45:39.415Z,93.75
2018-12-05T20:48:06.474Z,93.74
2018-12-05T20:50:32.674Z,93.74
2018-12-05T20:52:58.795Z,93.78
2018-12-05T20:55:24.931Z,93.93
2018-12-05T20:57:51.079Z,94.08
2018-12-05T21:00:17.213Z,94.99
2018-12-05T21:02:43.355Z,94.50
2018-12-05T21:05:09.515Z,94.59
2018-12-05T21:07:35.664Z,94.15
2018-12-05T21:10:01.822Z,93.83
2018-12-05T21:12:27.959Z,94.09
2018-12-05T21:14:55.015Z,93.93
2018-12-05T21:17:21.177Z,93.95
2018-12-05T21:19:47.311Z,93.95
2018-12-05T21:22:13.439Z,93.87
2018-12-05T21:24:39.732Z,94.52
2018-12-05T21:27:06.035Z,94.44
2018-12-05T21:29:32.466Z,94.47
2018-12-05T21:31:58.620Z,94.78
2018-12-05T21:34:24.907Z,94.60
2018-12-05T21:36:51.103Z,94.68
2018-12-05T21:39:17.316Z,94.86
2018-12-05T21:41:43.635Z,95.65
2018-12-05T21:44:09.780Z,95.99
2018-12-05T21:46:36.932Z,96.69
2018-12-05T21:49:03.188Z,97.81
2018-12-05T21:51:29.331Z,98.13
2018-12-05T21:53:56.101Z,98.57
2018-12-05T21:56:22.682Z,98.11
2018-12-05T21:58:48.872Z,98.56
2018-12-05T22:01:15.048Z,98.99
2018-12-05T22:03:41.213Z,98.67
2018-12-05T22:06:07.351Z,98.68
2018-12-05T22:08:33.523Z,98.87
2018-12-05T22:10:59.663Z,99.34
2018-12-05T22:13:25.810Z,99.32
2018-12-05T22:15:51.931Z,99.93
2018-12-05T22:18:21.566Z,99.98
2018-12-05T22:20:47.698Z,99.83
2018-12-05T22:23:15.624Z,99.53
2018-12-05T22:25:41.763Z,99.88
2018-12-05T22:28:07.928Z,99.48
2018-12-05T22:30:34.078Z,99.67
2018-12-05T22:33:00.220Z,99.69
2018-12-05T22:35:26.360Z,99.50
2018-12-05T22:37:52.499Z,99.40
2018-12-05T22:40:18.627Z,99.06
2018-12-05T22:42:44.804Z,98.98
2018-12-05T22:45:11.273Z,98.92
2018-12-05T22:47:37.468Z,98.85
2018-12-05T22:50:04.645Z,98.72
2018-12-05T22:52:30.801Z,98.76
2018-12-05T22:54:56.935Z,98.61
2018-12-05T22:57:23.071Z,98.91
2018-12-05T22:59:49.229Z,98.26
2018-12-05T23:02:15.492Z,98.75
2018-12-05T23:04:41.655Z,98.49
2018-12-05T23:07:07.787Z,98.86
2018-12-05T23:09:33.943Z,98.80
2018-12-05T23:12:00.098Z,98.42
2018-12-05T23:14:26.265Z,98.84
2018-12-05T23:16:52.411Z,98.60
2018-12-05T23:19:18.563Z,98.63
2018-12-05T23:21:44.706Z,98.70
2018-12-05T23:24:10.847Z,99.33
2018-12-05T23:26:37.012Z,99.31
2018-12-05T23:29:03.181Z,98.75
2018-12-05T23:31:29.321Z,99.13
2018-12-05T23:33:55.482Z,98.72
2018-12-05T23:36:21.631Z,98.71
2018-12-05T23:38:47.777Z,98.70
2018-12-05T23:41:13.913Z,98.70
2018-12-05T23:43:40.057Z,99.34
2018-12-05T23:46:06.234Z,99.43
2018-12-05T23:48:32.423Z,99.70
2018-12-05T23:50:58.559Z,99.20
2018-12-05T23:53:24.718Z,99.23
2018-12-05T23:55:50.863Z,98.98
2018-12-05T23:58:16.992Z,98.67
